createdAt,value
2019-05-12T00:00:19.870Z,100392.26
2019-05-12T00:02:48.656Z,100396.17
2019-05-12T00:05:18.462Z,100401.72
2019-05-12T00:07:48.851Z,100402.27
2019-05-12T00:10:17.872Z,100410.03
2019-05-12T00:12:48.340Z,100411.89
2019-05-12T00:15:19.246Z,100408.46
2019-05-12T00:17:48.387Z,100409.47
2019-05-12T00:20:18.182Z,100412.05
2019-05-12T00:22:51.392Z,100418.88
2019-05-12T00:25:20.041Z,100419.34
2019-05-12T00:27:48.902Z,100419.97
2019-05-12T00:30:34.877Z,100421.08
2019-05-12T00:33:03.911Z,100423.92
2019-05-12T00:35:32.401Z,100429.12
2019-05-12T00:38:01.062Z,100432.70
2019-05-12T00:40:29.467Z,100439.83
2019-05-12T00:42:58.059Z,100434.84
2019-05-12T00:45:29.305Z,100444.97
2019-05-12T00:47:58.263Z,100444.03
2019-05-12T00:50:29.003Z,100445.10
2019-05-12T00:52:57.949Z,100441.08
2019-05-12T00:55:28.848Z,100442.41
2019-05-12T00:57:58.170Z,100451.00
2019-05-12T01:00:29.432Z,100451.97
2019-05-12T01:02:58.142Z,100453.00
2019-05-12T01:05:29.149Z,100458.34
2019-05-12T01:07:58.233Z,100458.62
2019-05-12T01:10:28.676Z,100456.61
2019-05-12T01:12:58.127Z,100464.33
2019-05-12T01:15:28.639Z,100472.50
2019-05-12T01:17:58.487Z,100474.92
2019-05-12T01:20:28.270Z,100474.72
2019-05-12T01:22:57.893Z,100471.73
2019-05-12T01:25:28.762Z,100476.38
2019-05-12T01:27:58.973Z,100478.14
2019-05-12T01:30:28.397Z,100477.58
2019-05-12T01:32:58.115Z,100478.47
2019-05-12T01:35:28.188Z,100475.62
2019-05-12T01:37:58.721Z,100479.75
2019-05-12T01:40:28.554Z,100479.39
2019-05-12T01:42:58.268Z,100488.87
2019-05-12T01:45:28.832Z,100490.39
2019-05-12T01:47:59.092Z,100496.84
2019-05-12T01:50:28.374Z,100504.53
2019-05-12T01:52:58.866Z,100505.51
2019-05-12T01:55:28.295Z,100502.17
2019-05-12T01:57:57.811Z,100512.01
2019-05-12T02:00:28.199Z,100509.86
2019-05-12T02:02:58.460Z,100512.92
2019-05-12T02:05:28.062Z,100515.56
2019-05-12T02:07:58.683Z,100519.50
2019-05-12T02:10:28.727Z,100525.30
2019-05-12T02:12:59.421Z,100537.15
2019-05-12T02:15:27.961Z,100534.03
2019-05-12T02:17:58.949Z,100538.41
2019-05-12T02:20:28.737Z,100540.39
2019-05-12T02:22:58.472Z,100551.28
2019-05-12T02:25:28.739Z,100556.19
2019-05-12T02:27:58.379Z,100556.36
2019-05-12T02:30:30.525Z,100565.70
2019-05-12T02:32:59.045Z,100566.58
2019-05-12T02:35:27.747Z,100566.98
2019-05-12T02:37:56.348Z,100581.45
2019-05-12T02:40:25.615Z,100579.81
2019-05-12T02:42:55.015Z,100589.99
2019-05-12T02:45:25.910Z,100592.55
2019-05-12T02:47:54.706Z,100601.14
2019-05-12T02:50:37.369Z,100605.31
2019-05-12T02:53:06.809Z,100610.09
2019-05-12T02:55:35.894Z,100613.22
2019-05-12T02:58:06.150Z,100613.84
2019-05-12T03:00:36.256Z,100618.36
2019-05-12T03:03:07.629Z,100614.84
2019-05-12T03:05:37.094Z,100620.33
2019-05-12T03:08:05.630Z,100622.61
2019-05-12T03:10:36.539Z,100632.94
2019-05-12T03:13:05.548Z,100633.63
2019-05-12T03:15:36.502Z,100616.87
2019-05-12T03:18:06.279Z,100634.12
2019-05-12T03:20:35.490Z,100639.60
2019-05-12T03:23:05.731Z,100642.98
2019-05-12T03:25:36.301Z,100649.66
2019-05-12T03:28:08.662Z,100651.89
2019-05-12T03:30:38.582Z,100655.62
2019-05-12T03:33:09.803Z,100659.52
2019-05-12T03:35:42.672Z,100660.83
2019-05-12T03:38:06.867Z,100664.64
2019-05-12T03:40:38.609Z,100669.43
2019-05-12T03:43:05.884Z,100668.11
2019-05-12T03:45:36.013Z,100668.45
2019-05-12T03:48:06.253Z,100677.34
2019-05-12T03:50:35.806Z,100668.59
2019-05-12T03:53:10.153Z,100685.11
2019-05-12T03:55:41.386Z,100683.08
2019-05-12T03:58:06.259Z,100685.93
2019-05-12T04:00:36.199Z,100685.44
2019-05-12T04:03:05.660Z,100680.30
2019-05-12T04:05:36.361Z,100694.37
2019-05-12T04:08:06.368Z,100695.42
2019-05-12T04:10:36.362Z,100691.28
2019-05-12T04:13:05.693Z,100699.33
2019-05-12T04:15:35.446Z,100712.85
2019-05-12T04:18:05.914Z,100723.05
2019-05-12T04:20:36.063Z,100725.73
2019-05-12T04:23:06.272Z,100729.55
2019-05-12T04:25:47.935Z,100731.70
2019-05-12T04:28:05.496Z,100737.27
2019-05-12T04:30:35.510Z,100747.38
2019-05-12T04:33:05.185Z,100750.93
2019-05-12T04:35:35.169Z,100756.69
2019-05-12T04:38:04.802Z,100759.41
2019-05-12T04:40:36.060Z,100757.72
2019-05-12T04:43:05.724Z,100759.78
2019-05-12T04:45:34.867Z,100760.83
2019-05-12T04:48:05.165Z,100764.92
2019-05-12T04:50:35.399Z,100777.70
2019-05-12T04:53:06.015Z,100787.05
2019-05-12T04:55:36.023Z,100793.45
2019-05-12T04:58:07.557Z,100793.31
2019-05-12T05:03:35.048Z,100801.25
2019-05-12T05:06:04.622Z,100809.48
2019-05-12T05:08:34.872Z,100814.03
2019-05-12T05:11:04.062Z,100821.41
2019-05-12T05:13:36.824Z,100826.47
2019-05-12T05:16:05.315Z,100825.98
2019-05-12T05:18:34.417Z,100826.52
2019-05-12T05:21:04.740Z,100827.00
2019-05-12T05:23:33.536Z,100829.16
2019-05-12T05:26:03.321Z,100828.95
2019-05-12T05:28:33.858Z,100834.09
2019-05-12T05:31:03.576Z,100841.35
2019-05-12T05:33:34.058Z,100835.72
2019-05-12T05:36:03.498Z,100843.51
2019-05-12T05:38:34.267Z,100843.47
2019-05-12T05:41:05.933Z,100844.27
2019-05-12T05:43:33.350Z,100852.80
2019-05-12T05:46:05.518Z,100854.02
2019-05-12T05:48:34.959Z,100852.02
2019-05-12T05:51:07.435Z,100852.27
2019-05-12T05:53:33.538Z,100860.98
2019-05-12T05:56:04.075Z,100860.53
2019-05-12T05:58:33.950Z,100859.92
2019-05-12T06:01:03.791Z,100858.36
2019-05-12T06:03:33.859Z,100853.79
2019-05-12T06:06:10.788Z,100861.55
2019-05-12T06:08:33.790Z,100863.67
2019-05-12T06:11:04.357Z,100866.70
2019-05-12T06:13:34.585Z,100864.31
2019-05-12T06:16:04.394Z,100875.45
2019-05-12T06:18:33.527Z,100868.48
2019-05-12T06:21:03.483Z,100873.81
2019-05-12T06:23:34.914Z,100873.81
2019-05-12T06:26:04.420Z,100877.83
2019-05-12T06:28:38.413Z,100883.59
2019-05-12T06:31:04.243Z,100885.75
2019-05-12T06:33:36.060Z,100895.58
2019-05-12T06:36:04.468Z,100889.33
2019-05-12T06:38:38.693Z,100896.84
2019-05-12T06:41:03.667Z,100903.23
2019-05-12T06:43:35.327Z,100907.12
2019-05-12T06:46:03.617Z,100899.95
2019-05-12T06:48:33.280Z,100902.23
2019-05-12T06:51:03.900Z,100904.09
2019-05-12T06:53:33.659Z,100907.92
2019-05-12T06:56:04.493Z,100911.63
2019-05-12T06:58:34.414Z,100915.97
2019-05-12T07:01:10.298Z,100911.95
2019-05-12T07:03:37.048Z,100875.13
2019-05-12T07:06:04.082Z,100925.11
2019-05-12T07:08:38.293Z,100925.86
2019-05-12T07:11:05.950Z,100935.59
2019-05-12T07:13:34.278Z,100936.31
2019-05-12T07:16:22.086Z,100933.27
2019-05-12T07:18:47.108Z,100936.34
2019-05-12T07:21:19.800Z,100938.04
2019-05-12T07:23:45.943Z,100936.48
2019-05-12T07:26:19.476Z,100937.35
2019-05-12T07:28:46.914Z,100943.66
2019-05-12T07:31:15.865Z,100945.63
2019-05-12T07:33:45.957Z,100946.13
2019-05-12T07:36:16.303Z,100950.86
2019-05-12T07:38:46.673Z,100956.15
2019-05-12T07:41:15.725Z,100958.88
2019-05-12T07:43:50.588Z,100962.25
2019-05-12T07:46:18.021Z,100959.96
2019-05-12T07:48:50.778Z,100962.63
2019-05-12T07:51:17.313Z,100962.50
2019-05-12T07:53:54.662Z,100976.57
2019-05-12T07:56:19.702Z,100979.48
2019-05-12T07:58:52.980Z,100979.50
2019-05-12T08:01:17.422Z,100975.58
2019-05-12T08:03:46.085Z,100983.98
2019-05-12T08:06:14.465Z,100988.72
2019-05-12T08:08:50.255Z,100990.91
2019-05-12T08:11:14.907Z,100989.30
2019-05-12T08:13:43.843Z,100993.84
2019-05-12T08:16:14.262Z,100992.80
2019-05-12T08:18:44.503Z,100997.52
2019-05-12T08:21:14.027Z,101005.93
2019-05-12T08:23:44.516Z,101001.06
2019-05-12T08:26:18.301Z,101003.50
2019-05-12T08:28:44.188Z,101006.23
2019-05-12T08:31:14.107Z,101005.64
2019-05-12T08:33:43.635Z,101010.13
2019-05-12T08:36:16.048Z,101014.45
2019-05-12T08:38:44.414Z,101016.73
2019-05-12T08:41:14.643Z,101014.78
2019-05-12T08:43:46.888Z,101012.06
2019-05-12T08:46:15.744Z,101016.16
2019-05-12T08:48:44.657Z,101018.05
2019-05-12T08:51:16.709Z,101023.81
2019-05-12T08:53:44.044Z,101022.95
2019-05-12T08:56:18.168Z,101029.33
2019-05-12T08:58:50.399Z,101030.37
2019-05-12T09:01:13.803Z,101038.97
2019-05-12T09:03:44.247Z,101045.19
2019-05-12T09:06:15.652Z,101043.17
2019-05-12T09:08:49.400Z,101042.46
2019-05-12T09:11:15.088Z,101054.09
2019-05-12T09:13:43.612Z,101053.16
2019-05-12T09:16:13.901Z,101063.39
2019-05-12T09:18:43.500Z,101062.52
2019-05-12T09:21:14.076Z,101062.89
2019-05-12T09:23:44.931Z,101069.50
2019-05-12T09:26:13.553Z,101066.82
2019-05-12T09:28:47.457Z,101063.50
2019-05-12T09:31:14.108Z,101068.58
2019-05-12T09:33:44.551Z,101070.47
2019-05-12T09:36:19.803Z,101067.67
2019-05-12T09:38:44.001Z,101076.84
2019-05-12T09:41:13.980Z,101073.69
2019-05-12T09:43:46.381Z,101077.87
2019-05-12T09:46:14.396Z,101089.80
2019-05-12T09:48:46.857Z,101087.25
2019-05-12T09:51:13.776Z,101087.55
2019-05-12T09:53:50.755Z,101091.07
2019-05-12T09:56:13.873Z,101091.67
2019-05-12T09:58:43.651Z,101097.67
2019-05-12T10:01:14.046Z,101110.52
2019-05-12T10:03:43.730Z,101110.12
2019-05-12T10:06:19.522Z,101117.16
2019-05-12T10:08:43.430Z,101116.00
2019-05-12T10:11:16.689Z,101113.73
2019-05-12T10:13:42.170Z,101123.09
2019-05-12T10:16:10.620Z,101130.16
2019-05-12T10:18:43.052Z,101125.00
2019-05-12T10:21:10.037Z,101125.90
2019-05-12T10:23:39.353Z,101115.06
2019-05-12T10:26:11.604Z,101123.20
2019-05-12T10:28:37.973Z,101122.59
2019-05-12T10:31:06.711Z,101129.53
2019-05-12T10:33:35.105Z,101123.92
2019-05-12T10:36:06.854Z,101122.57
2019-05-12T10:38:34.346Z,101127.45
2019-05-12T10:41:04.297Z,101131.17
2019-05-12T10:43:34.217Z,101124.36
2019-05-12T10:46:04.216Z,101128.79
2019-05-12T10:48:33.837Z,101131.34
2019-05-12T10:51:02.599Z,101134.83
2019-05-12T10:53:31.012Z,101140.59
2019-05-12T10:55:59.417Z,101139.81
2019-05-12T10:58:27.962Z,101133.84
2019-05-12T11:00:58.999Z,101144.38
2019-05-12T11:03:26.488Z,101138.81
2019-05-12T11:06:02.607Z,101137.51
2019-05-12T11:08:25.025Z,101144.89
2019-05-12T11:10:59.358Z,101135.88
2019-05-12T11:13:23.569Z,101139.33
2019-05-12T11:15:52.028Z,101138.05
2019-05-12T11:18:26.067Z,101141.56
2019-05-12T11:20:50.893Z,101143.02
2019-05-12T11:23:19.373Z,101146.53
2019-05-12T11:25:47.765Z,101143.20
2019-05-12T11:28:16.281Z,101145.90
2019-05-12T11:30:44.704Z,101138.81
2019-05-12T11:33:13.135Z,101140.94
2019-05-12T11:35:43.537Z,101134.37
2019-05-12T11:38:13.470Z,101146.76
2019-05-12T11:40:43.733Z,101144.89
2019-05-12T11:43:14.449Z,101146.25
2019-05-12T11:45:44.182Z,101149.23
2019-05-12T11:48:14.363Z,101150.70
2019-05-12T11:50:49.406Z,101147.17
2019-05-12T11:53:13.859Z,101150.53
2019-05-12T11:55:43.742Z,101158.32
2019-05-12T11:58:12.488Z,101164.85
2019-05-12T12:00:44.154Z,101164.06
2019-05-12T12:03:17.055Z,101168.70
2019-05-12T12:05:44.333Z,101165.17
2019-05-12T12:08:14.460Z,101168.77
2019-05-12T12:10:43.189Z,101165.16
2019-05-12T12:13:13.940Z,101161.24
2019-05-12T12:15:41.860Z,101163.19
2019-05-12T12:18:15.310Z,101169.05
2019-05-12T12:20:40.780Z,101170.70
2019-05-12T12:23:11.281Z,101123.62
2019-05-12T12:25:43.240Z,101169.97
2019-05-12T12:28:09.757Z,101164.20
2019-05-12T12:30:38.154Z,101165.78
2019-05-12T12:33:06.566Z,101165.85
2019-05-12T12:35:34.985Z,101169.25
2019-05-12T12:38:04.105Z,101175.42
2019-05-12T12:40:32.558Z,101175.25
2019-05-12T12:43:03.476Z,101171.88
2019-05-12T12:45:36.631Z,101169.41
2019-05-12T12:48:03.408Z,101169.39
2019-05-12T12:50:34.173Z,101172.02
2019-05-12T12:53:02.746Z,101165.36
2019-05-12T12:55:31.192Z,101165.30
2019-05-12T12:57:59.697Z,101171.80
2019-05-12T13:00:32.023Z,101159.39
2019-05-12T13:02:58.267Z,101166.92
2019-05-12T13:05:27.185Z,101168.58
2019-05-12T13:07:55.806Z,101170.73
2019-05-12T13:10:24.909Z,101167.52
2019-05-12T13:12:56.529Z,101173.24
2019-05-12T13:15:24.034Z,101170.70
2019-05-12T13:17:52.448Z,101168.39
2019-05-12T13:20:20.988Z,101166.19
2019-05-12T13:22:49.456Z,101156.82
2019-05-12T13:25:17.985Z,101158.31
2019-05-12T13:27:46.387Z,101164.03
2019-05-12T13:30:19.855Z,101167.55
2019-05-12T13:32:45.236Z,101174.17
2019-05-12T13:35:16.209Z,101172.63
2019-05-12T13:37:43.930Z,101164.70
2019-05-12T13:40:12.578Z,101171.20
2019-05-12T13:42:41.033Z,101159.35
2019-05-12T13:45:13.042Z,101173.75
2019-05-12T13:47:40.286Z,101169.02
2019-05-12T13:50:15.534Z,101169.00
2019-05-12T13:52:39.597Z,101164.98
2019-05-12T13:55:08.466Z,101161.36
2019-05-12T13:57:36.922Z,101163.88
2019-05-12T14:00:10.717Z,101166.00
2019-05-12T14:02:37.599Z,101167.06
2019-05-12T14:05:11.436Z,101152.52
2019-05-12T14:07:37.259Z,101150.54
2019-05-12T14:10:07.874Z,101150.14
2019-05-12T14:12:36.301Z,101147.11
2019-05-12T14:15:07.155Z,101148.23
2019-05-12T14:17:40.209Z,101160.50
2019-05-12T14:20:09.404Z,101157.59
2019-05-12T14:22:37.198Z,101151.53
2019-05-12T14:25:06.349Z,101149.59
2019-05-12T14:27:34.755Z,101154.73
2019-05-12T14:30:09.993Z,101153.27
2019-05-12T14:32:33.691Z,101153.78
2019-05-12T14:35:04.135Z,101149.55
2019-05-12T14:37:33.572Z,101150.41
2019-05-12T14:40:04.381Z,101150.39
2019-05-12T14:42:37.286Z,101153.69
2019-05-12T14:45:04.543Z,101144.52
2019-05-12T14:47:33.986Z,101147.42
2019-05-12T14:50:04.084Z,101143.34
2019-05-12T14:52:33.288Z,101152.67
2019-05-12T14:55:03.450Z,101147.51
2019-05-12T14:57:37.470Z,101150.69
2019-05-12T15:00:03.956Z,101150.70
2019-05-12T15:02:33.180Z,101153.59
2019-05-12T15:05:06.631Z,101154.88
2019-05-12T15:07:31.971Z,101153.08
2019-05-12T15:10:02.470Z,101156.27
2019-05-12T15:12:30.530Z,101157.22
2019-05-12T15:14:58.958Z,101158.13
2019-05-12T15:17:27.365Z,101163.33
2019-05-12T15:20:00.264Z,101166.92
2019-05-12T15:22:26.016Z,101162.71
2019-05-12T15:24:58.825Z,101167.74
2019-05-12T15:27:39.577Z,101171.53
2019-05-12T15:29:58.343Z,101164.47
2019-05-12T15:32:25.352Z,101163.80
2019-05-12T15:34:53.854Z,101166.22
2019-05-12T15:37:23.827Z,101171.16
2019-05-12T15:39:53.515Z,101171.22
2019-05-12T15:42:23.534Z,101167.62
2019-05-12T15:44:53.736Z,101165.59
2019-05-12T15:47:29.399Z,101166.05
2019-05-12T15:49:53.219Z,101169.06
2019-05-12T15:52:24.274Z,101176.88
2019-05-12T15:54:54.010Z,101183.78
2019-05-12T15:57:24.499Z,101187.62
2019-05-12T15:59:54.118Z,101179.11
2019-05-12T16:02:23.496Z,101179.94
2019-05-12T16:04:54.815Z,101189.39
2019-05-12T16:07:24.242Z,101191.38
2019-05-12T16:09:54.621Z,101187.87
2019-05-12T16:12:26.118Z,101195.46
2019-05-12T16:14:54.037Z,101195.00
2019-05-12T16:17:25.427Z,101195.45
2019-05-12T16:19:54.113Z,101203.17
2019-05-12T16:22:23.232Z,101201.83
2019-05-12T16:24:53.206Z,101199.08
2019-05-12T16:27:24.900Z,101201.05
2019-05-12T16:29:53.452Z,101209.25
2019-05-12T16:32:26.809Z,101217.28
2019-05-12T16:34:54.147Z,101215.40
2019-05-12T16:37:30.935Z,101213.30
2019-05-12T16:39:54.061Z,101216.09
2019-05-12T16:42:23.602Z,101212.91
2019-05-12T16:44:56.095Z,101214.52
2019-05-12T16:47:25.188Z,101212.48
2019-05-12T16:49:53.427Z,101213.72
2019-05-12T16:52:24.256Z,101213.37
2019-05-12T16:54:54.048Z,101214.39
2019-05-12T16:57:22.596Z,101211.89
2019-05-12T16:59:55.944Z,101218.58
2019-05-12T17:02:23.392Z,101215.88
2019-05-12T17:04:51.242Z,101219.41
2019-05-12T17:07:20.949Z,101219.30
2019-05-12T17:09:49.520Z,101212.07
2019-05-12T17:12:17.945Z,101214.72
2019-05-12T17:14:50.075Z,101219.38
2019-05-12T17:17:16.573Z,101220.79
2019-05-12T17:19:44.994Z,101223.84
2019-05-12T17:22:17.345Z,101183.39
2019-05-12T17:24:44.886Z,101233.99
2019-05-12T17:27:15.716Z,101227.48
2019-05-12T17:29:43.609Z,101225.55
2019-05-12T17:32:13.430Z,101236.14
2019-05-12T17:34:45.695Z,101229.59
2019-05-12T17:37:14.362Z,101238.03
2019-05-12T17:39:43.796Z,101236.97
2019-05-12T17:42:21.327Z,101241.53
2019-05-12T17:44:43.579Z,101245.04
2019-05-12T17:47:20.725Z,101250.87
2019-05-12T17:49:43.622Z,101251.54
2019-05-12T17:52:17.447Z,101254.91
2019-05-12T17:54:43.369Z,101253.41
2019-05-12T17:57:17.866Z,101256.16
2019-05-12T17:59:44.648Z,101259.23
2019-05-12T18:02:16.721Z,101259.31
2019-05-12T18:04:43.772Z,101266.06
2019-05-12T18:07:18.533Z,101266.27
2019-05-12T18:09:44.197Z,101272.33
2019-05-12T18:12:13.918Z,101278.50
2019-05-12T18:14:50.481Z,101279.54
2019-05-12T18:17:14.149Z,101280.70
2019-05-12T18:19:44.414Z,101281.73
2019-05-12T18:22:14.214Z,101281.59
2019-05-12T18:24:49.311Z,101286.92
2019-05-12T18:27:13.767Z,101288.92
2019-05-12T18:29:44.138Z,101292.27
2019-05-12T18:32:13.811Z,101295.13
2019-05-12T18:34:44.521Z,101304.27
2019-05-12T18:37:13.556Z,101306.59
2019-05-12T18:39:43.627Z,101311.08
2019-05-12T18:42:13.981Z,101311.22
2019-05-12T18:44:43.922Z,101319.36
2019-05-12T18:47:16.666Z,101319.95
2019-05-12T18:49:48.008Z,101326.59
2019-05-12T18:52:14.646Z,101326.72
2019-05-12T18:54:52.108Z,101331.67
2019-05-12T18:57:13.512Z,101332.80
2019-05-12T18:59:46.194Z,101338.67
2019-05-12T19:02:14.610Z,101344.61
2019-05-12T19:04:44.307Z,101347.30
2019-05-12T19:07:15.139Z,101350.86
2019-05-12T19:09:46.954Z,101355.53
2019-05-12T19:12:17.904Z,101362.19
2019-05-12T19:14:43.734Z,101365.20
2019-05-12T19:17:14.133Z,101362.48
2019-05-12T19:19:46.004Z,101370.45
2019-05-12T19:22:14.075Z,101367.64
2019-05-12T19:24:44.355Z,101375.87
2019-05-12T19:27:16.680Z,101371.88
2019-05-12T19:29:48.818Z,101376.05
2019-05-12T19:32:14.359Z,101385.71
2019-05-12T19:34:43.314Z,101390.56
2019-05-12T19:37:14.252Z,101398.72
2019-05-12T19:39:44.543Z,101393.09
2019-05-12T19:42:17.065Z,101403.61
2019-05-12T19:44:43.900Z,101405.57
2019-05-12T19:47:13.739Z,101413.05
2019-05-12T19:49:47.926Z,101414.69
2019-05-12T19:52:13.954Z,101422.72
2019-05-12T19:54:44.346Z,101422.72
2019-05-12T19:57:21.564Z,101418.93
2019-05-12T19:59:50.591Z,101417.95
2019-05-12T20:03:34.799Z,101425.41
2019-05-12T20:06:03.177Z,101426.41
2019-05-12T20:08:31.757Z,101425.91
2019-05-12T20:11:00.170Z,101428.75
2019-05-12T20:13:29.525Z,101427.92
2019-05-12T20:15:58.734Z,101433.09
2019-05-12T20:18:27.121Z,101427.80
2019-05-12T20:20:55.529Z,101430.34
2019-05-12T20:23:24.668Z,101431.57
2019-05-12T20:25:53.567Z,101436.80
2019-05-12T20:28:24.262Z,101434.64
2019-05-12T20:31:00.569Z,101431.41
2019-05-12T20:33:24.047Z,101433.14
2019-05-12T20:35:54.649Z,101433.14
2019-05-12T20:38:25.452Z,101438.33
2019-05-12T20:40:54.060Z,101433.77
2019-05-12T20:43:24.098Z,101435.17
2019-05-12T20:45:52.698Z,101441.06
2019-05-12T20:48:26.638Z,101440.39
2019-05-12T20:50:51.345Z,101441.14
2019-05-12T20:53:24.857Z,101442.13
2019-05-12T20:55:49.896Z,101441.47
2019-05-12T20:58:18.299Z,101442.20
2019-05-12T21:00:50.104Z,101443.39
2019-05-12T21:03:16.917Z,101449.28
2019-05-12T21:05:50.582Z,101439.67
2019-05-12T21:08:15.733Z,101440.81
2019-05-12T21:10:44.312Z,101443.37
2019-05-12T21:13:14.707Z,101442.89
2019-05-12T21:15:45.640Z,101437.03
2019-05-12T21:18:14.687Z,101442.42
2019-05-12T21:20:46.306Z,101443.02
2019-05-12T21:23:13.617Z,101442.23
2019-05-12T21:25:43.904Z,101440.43
2019-05-12T21:28:14.657Z,101437.95
2019-05-12T21:30:48.144Z,101443.22
2019-05-12T21:33:14.734Z,101446.86
2019-05-12T21:35:45.790Z,101454.05
2019-05-12T21:38:13.453Z,101451.77
2019-05-12T21:40:44.066Z,101454.55
2019-05-12T21:43:13.554Z,101457.30
2019-05-12T21:45:42.123Z,101457.19
2019-05-12T21:48:15.058Z,101458.38
2019-05-12T21:50:40.875Z,101458.64
2019-05-12T21:53:10.300Z,101459.36
2019-05-12T21:55:39.706Z,101463.44
2019-05-12T21:58:12.058Z,101464.15
2019-05-12T22:00:50.378Z,101471.36
2019-05-12T22:03:16.643Z,101473.16
2019-05-12T22:05:51.659Z,101475.92
2019-05-12T22:08:20.648Z,101479.27
2019-05-12T22:10:47.379Z,101483.45
2019-05-12T22:13:18.117Z,101483.20
2019-05-12T22:15:45.907Z,101478.78
2019-05-12T22:18:14.361Z,101482.99
2019-05-12T22:20:46.051Z,101483.83
2019-05-12T22:23:15.144Z,101480.95
2019-05-12T22:25:43.637Z,101491.72
2019-05-12T22:28:13.518Z,101490.04
2019-05-12T22:30:43.765Z,101488.59
2019-05-12T22:33:13.748Z,101481.88
2019-05-12T22:35:44.373Z,101482.72
2019-05-12T22:38:19.368Z,101484.77
2019-05-12T22:40:43.176Z,101485.38
2019-05-12T22:43:11.573Z,101489.32
2019-05-12T22:45:44.357Z,101492.07
2019-05-12T22:48:10.114Z,101490.53
2019-05-12T22:50:43.537Z,101488.38
2019-05-12T22:53:13.400Z,101486.93
2019-05-12T22:55:42.210Z,101491.95
2019-05-12T22:58:16.658Z,101502.73
2019-05-12T23:00:40.883Z,101500.81
2019-05-12T23:03:11.648Z,101502.39
2019-05-12T23:05:39.499Z,101505.98
2019-05-12T23:08:08.544Z,101501.55
2019-05-12T23:10:41.427Z,101505.36
2019-05-12T23:13:07.183Z,101507.63
2019-05-12T23:15:38.797Z,101504.30
2019-05-12T23:18:05.907Z,101510.53
2019-05-12T23:20:35.648Z,101509.47
2019-05-12T23:23:09.146Z,101505.88
2019-05-12T23:25:34.373Z,101504.92
2019-05-12T23:28:08.453Z,101505.51
2019-05-12T23:30:32.971Z,101507.66
2019-05-12T23:33:03.827Z,101506.94
2019-05-12T23:35:37.730Z,101508.38
2019-05-12T23:38:04.179Z,101508.98
2019-05-12T23:40:34.249Z,101510.67
2019-05-12T23:43:04.077Z,101509.92
2019-05-12T23:45:34.049Z,101512.20
2019-05-12T23:48:03.673Z,101516.04
2019-05-12T23:50:32.431Z,101511.25
2019-05-12T23:53:03.496Z,101512.17
2019-05-12T23:55:34.731Z,101518.63
2019-05-12T23:58:04.331Z,101514.41
